Flight Track Log - Related Links

Times and Time Zones

All times are in EDT time to prevent confusion due to time zone crossing. See the EGF4211 flight status page for this flight to view local times or setup timezone preferences in your user account.


Time Position Orientation Groundspeed Altitude Reporting Facility
EDT Latitude Longitude Course Direction KTS MPH feet Rate Location/Type
Tue 04:32:30 PM 41.9667 -87.9833 346° North 183 211 2,400  Level Chicago TRACON
Tue 04:33:30 PM 41.9667 -88.0500 270° West 233 268 4,200 2,200 Climbing Chicago TRACON
Tue 04:34:00 PM 42.2583 -87.9937 350° North  Level FlightAware Approximate
Tue 04:34:30 PM 41.9667 -88.1500 270° West 253 291 6,800  Level Chicago TRACON
Tue 04:34:47 PM 41.9756 -88.1583 325° Northwest 251 289 7,100 1,595 Climbing Chicago Center
Tue 04:35:00 PM 42.3568 -88.0201 340° North  Level FlightAware Approximate
Tue 04:35:49 PM 42.0500 -88.1614 358° North 322 371 8,900  Level Chicago Center
Tue 04:36:00 PM 42.4530 -88.0573 352° North  Level FlightAware Approximate
Tue 04:36:51 PM 42.1428 -88.0839 32° Northeast 336 387 11,800  Level Chicago Center
Tue 04:37:00 PM 42.5480 -88.0937 346° North  Level FlightAware Approximate
Tue 04:37:54 PM 42.2319 -88.0753 North 324 373 14,000  Level Chicago Center
Tue 04:38:56 PM 42.3228 -88.0714 North 328 377 16,100 1,645 Climbing Chicago Center
Tue 04:39:58 PM 42.4222 -88.0858 354° North 326 375 17,400 1,306 Climbing Chicago Center
Tue 04:41:00 PM 42.5169 -88.1142 348° North 346 398 18,800 1,306 Climbing Chicago Center
Tue 04:42:02 PM 42.6158 -88.1417 348° North 360 414 20,100 1,258 Climbing Chicago Center
Tue 04:43:04 PM 42.7186 -88.1706 348° North 373 429 21,400 1,306 Climbing Chicago Center
Tue 04:44:06 PM 42.8006 -88.2483 325° Northwest 368 423 22,800 1,355 Climbing Chicago Center
Tue 04:45:08 PM 42.8678 -88.3847 304° West 371 427 24,200 1,306 Climbing Chicago Center
Tue 04:46:10 PM 42.9261 -88.5022 304° West 373 429 25,500 1,258 Climbing Chicago Center
Tue 04:47:12 PM 42.9842 -88.6211 304° West 373 429 26,800 1,258 Climbing Chicago Center
Tue 04:48:14 PM 43.0425 -88.7394 304° West 372 428 28,100 1,258 Climbing Chicago Center
Tue 04:49:16 PM 43.0994 -88.8558 304° West 367 422 29,400 1,258 Climbing Chicago Center
Tue 04:50:18 PM 43.1564 -88.9742 303° West 368 423 30,700 1,258 Climbing Chicago Center
Tue 04:51:20 PM 43.2142 -89.0911 304° West 370 426 32,000 1,355 Climbing Chicago Center
Tue 04:52:22 PM 43.2817 -89.2289 304° West 372 428 33,500 960 Climbing Chicago Center
Tue 04:53:25 PM 43.3378 -89.3472 303° West 370 426 34,000 240 Climbing Chicago Center
Tue 04:54:27 PM 43.3969 -89.4739 303° West 387 445 34,000  Level Chicago Center
Tue 04:55:29 PM 43.4614 -89.6092 303° West 413 475 34,000  Level Chicago Center
Tue 04:56:31 PM 43.5239 -89.7394 304° West 409 471 34,000  Level Chicago Center
Tue 04:57:33 PM 43.5858 -89.8672 304° West 401 461 34,000  Level Chicago Center
Tue 04:58:04 PM 43.6269 -89.9528 304° West 400 460 34,000  Level Minneapolis Center
Tue 04:59:05 PM 43.6875 -90.0825 303° West 402 463 34,000  Level Minneapolis Center
Tue 05:00:07 PM 43.7472 -90.2103 303° West 403 464 34,000  Level Minneapolis Center
Tue 05:01:09 PM 43.8092 -90.3433 303° West 403 464 34,000  Level Minneapolis Center
Tue 05:02:11 PM 43.8703 -90.4742 303° West 405 466 34,000  Level Minneapolis Center
Tue 05:03:13 PM 43.9267 -90.5986 302° West 404 465 34,000  Level Minneapolis Center
Tue 05:04:15 PM 43.9994 -90.7547 303° West 407 468 34,000  Level Minneapolis Center
Tue 05:05:17 PM 44.0594 -90.8853 303° West 406 467 34,000  Level Minneapolis Center
Tue 05:06:19 PM 44.1186 -91.0164 302° West 405 466 34,000  Level Minneapolis Center
Tue 05:07:20 PM 44.1797 -91.1483 303° West 406 467 34,000  Level Minneapolis Center
Tue 05:08:22 PM 44.2381 -91.2783 302° West 406 467 34,000  Level Minneapolis Center
Tue 05:09:24 PM 44.3111 -91.4414 302° West 406 467 34,000  Level Minneapolis Center
Tue 05:10:26 PM 44.3697 -91.5728 302° West 403 464 34,000  Level Minneapolis Center
Tue 05:11:28 PM 44.4281 -91.7061 302° West 403 464 34,000  Level Minneapolis Center
Tue 05:12:29 PM 44.4864 -91.8372 302° West 400 460 34,000  Level Minneapolis Center
Tue 05:13:31 PM 44.5436 -91.9686 301° West 398 458 34,000  Level Minneapolis Center
Tue 05:14:33 PM 44.6022 -92.1003 302° West 400 460 34,000  Level Minneapolis Center
Tue 05:15:35 PM 44.6708 -92.2589 301° West 399 459 34,000  Level Minneapolis Center
Tue 05:16:36 PM 44.7283 -92.3892 302° West 397 457 34,000  Level Minneapolis Center
Tue 05:17:38 PM 44.7847 -92.5206 301° West 396 456 34,000  Level Minneapolis Center
Tue 05:18:40 PM 44.8406 -92.6506 301° West 392 451 34,000  Level Minneapolis Center
Tue 05:19:42 PM 44.8958 -92.7817 301° West 391 450 34,000  Level Minneapolis Center
Tue 05:20:43 PM 44.9517 -92.9086 302° West 387 445 34,000  Level Minneapolis Center
Tue 05:21:45 PM 45.0156 -93.0625 300° West 385 443 34,000  Level Minneapolis Center
Tue 05:22:47 PM 45.0697 -93.1903 301° West 384 442 34,000  Level Minneapolis Center
Tue 05:23:48 PM 45.1236 -93.3175 301° West 383 441 34,000  Level Minneapolis Center
Tue 05:24:50 PM 45.1825 -93.4422 304° West 384 442 34,000  Level Minneapolis Center
Tue 05:25:52 PM 45.2481 -93.5600 308° West 386 444 34,000  Level Minneapolis Center
Tue 05:26:53 PM 45.3261 -93.7039 308° West 385 443 34,000  Level Minneapolis Center
Tue 05:27:55 PM 45.3903 -93.8231 308° West 383 441 34,000  Level Minneapolis Center
Tue 05:28:57 PM 45.4542 -93.9425 307° West 382 440 34,000  Level Minneapolis Center
Tue 05:29:58 PM 45.5175 -94.0606 307° West 379 436 34,000 -711 Level Minneapolis Center
Tue 05:31:00 PM 45.5786 -94.1761 307° West  Level FlightAware Approximate
Tue 05:31:12 PM 45.5939 -94.2047 307° West 381 438 32,400  Level Minneapolis Center
Tue 05:32:14 PM 45.6594 -94.3261 308° West 385 443 30,800 -1,645 Descending Minneapolis Center
Tue 05:33:16 PM 45.7397 -94.4717 308° West 388 447 29,000 -1,645 Descending Minneapolis Center
Tue 05:34:18 PM 45.8061 -94.5958 308° West 391 450 27,400 -1,512 Descending Minneapolis Center
Tue 05:35:19 PM 45.8692 -94.7281 304° West 398 458 25,900 -1,463 Descending Minneapolis Center
Tue 05:36:21 PM 45.9381 -94.8589 307° West 408 470 24,400 -1,452 Descending Minneapolis Center
Tue 05:37:23 PM 46.0086 -94.9939 307° West 419 482 22,900 -1,171 Descending Minneapolis Center
Tue 05:38:24 PM 46.0619 -95.0978 307° West 422 486 22,000 -2,293 Descending Minneapolis Center
Tue 05:39:26 PM 46.1458 -95.2608 307° West 363 418 18,200 -3,194 Descending Minneapolis Center
Tue 05:40:28 PM 46.1936 -95.3547 306° West 348 400 15,400 -2,565 Descending Minneapolis Center
Tue 05:41:30 PM 46.2542 -95.4728 307° West 324 373 12,900 -2,177 Descending Minneapolis Center
Tue 05:42:32 PM 46.3017 -95.5667 306° West 298 343 10,900 -1,610 Descending Minneapolis Center
Tue 05:43:33 PM 46.3439 -95.6522 306° West 278 320 9,600 -1,171 Descending Minneapolis Center
Tue 05:44:35 PM 46.3833 -95.7297 306° West 252 290 8,500 -644 Descending Minneapolis Center
Tue 05:46:02 PM 46.4447 -95.8522 306° West 224 258 8,000 -203 Descending Minneapolis Center
Tue 05:47:03 PM 46.4844 -95.9311 306° West 251 289 8,000  Level Minneapolis Center
Tue 05:48:05 PM 46.5261 -96.0142 306° West 244 281 8,000  Level Minneapolis Center
Tue 05:49:07 PM 46.5678 -96.0989 306° West 246 283 8,000 -97 Level Minneapolis Center
Tue 05:50:09 PM 46.6119 -96.1869 306° West 256 295 7,800 -488 Descending Minneapolis Center
Tue 05:51:10 PM 46.6517 -96.2669 306° West 236 272 7,000 -878 Descending Minneapolis Center
Tue 05:52:12 PM 46.6889 -96.3408 306° West 236 272 6,000 -1,016 Descending Minneapolis Center
Tue 05:53:14 PM 46.7278 -96.4219 305° West 236 272 4,900 -968 Descending Minneapolis Center
Tue 05:54:16 PM 46.7675 -96.5036 305° West 236 272 4,000 -537 Descending Minneapolis Center
Tue 05:55:17 PM 46.8125 -96.5622 318° Northwest 210 242 3,800 -197 Descending Minneapolis Center

Login

Don't have an account? Register now (free) for customized features, flight alerts, and more!